Time;durP1;ratioP1;P1;durP2;ratioP2;P2;SDS_P1;SDS_P2;PMS_P1;PMS_P2;Temp;Humidity;BMP_temperature;BMP_pressure;BME280_temperature;BME280_humidity;BME280_pressure;Samples;Min_cycle;Max_cycle;Signal;HPM_P1;HPM_P2
2021/04/01 00:01:09;;;;;;;9.35;6.50;;;;;;;;;;5043215;28;20186;-79
2021/04/01 00:03:36;;;;;;;12.35;6.70;;;;;;;;;;5042277;28;20183;-79
2021/04/01 00:06:03;;;;;;;12.27;7.35;;;;;;;;;;5042061;28;20226;-79
2021/04/01 00:08:30;;;;;;;7.63;5.32;;;;;;;;;;5044540;28;20207;-80
2021/04/01 00:10:58;;;;;;;9.52;6.00;;;;;;;;;;5047112;28;20193;-79
2021/04/01 00:13:26;;;;;;;9.00;5.68;;;;;;;;;;5046133;28;20190;-79
2021/04/01 00:15:54;;;;;;;5.90;5.18;;;;;;;;;;5044920;28;20664;-80
2021/04/01 00:18:22;;;;;;;9.57;6.28;;;;;;;;;;5045530;28;20190;-81
2021/04/01 00:20:50;;;;;;;7.97;6.72;;;;;;;;;;5044654;28;20190;-81
2021/04/01 00:23:17;;;;;;;6.97;5.60;;;;;;;;;;5045873;28;20179;-80
2021/04/01 00:25:43;;;;;;;9.20;6.55;;;;;;;;;;5045371;28;20584;-79
2021/04/01 00:28:10;;;;;;;8.85;5.75;;;;;;;;;;5045634;28;20588;-80
2021/04/01 00:30:38;;;;;;;9.07;5.32;;;;;;;;;;5045660;28;20206;-80
2021/04/01 00:33:26;;;;;;;6.97;6.07;;;;;;;;;;5045551;28;20182;-79
2021/04/01 00:35:53;;;;;;;6.93;4.97;;;;;;;;;;4968132;28;20205;-80
2021/04/01 00:38:20;;;;;;;6.82;4.90;;;;;;;;;;5045066;28;20221;-81
2021/04/01 00:40:47;;;;;;;8.65;5.13;;;;;;;;;;5046746;28;20194;-80
2021/04/01 00:43:14;;;;;;;6.50;4.63;;;;;;;;;;5046354;28;20206;-80
2021/04/01 00:45:42;;;;;;;6.28;5.13;;;;;;;;;;5044066;28;20217;-80
2021/04/01 00:48:10;;;;;;;8.35;5.32;;;;;;;;;;5045268;28;20237;-81
2021/04/01 00:50:37;;;;;;;6.43;4.72;;;;;;;;;;5045512;28;20214;-79
2021/04/01 00:53:04;;;;;;;7.90;4.70;;;;;;;;;;5044475;28;20209;-80
2021/04/01 00:55:31;;;;;;;8.75;5.22;;;;;;;;;;5045475;28;20202;-80
2021/04/01 00:58:02;;;;;;;7.38;5.22;;;;;;;;;;5045723;28;20233;-79
2021/04/01 01:00:32;;;;;;;8.43;5.13;;;;;;;;;;5045351;28;20201;-79
2021/04/01 01:03:00;;;;;;;6.72;5.15;;;;;;;;;;5045712;28;20198;-79
2021/04/01 01:05:29;;;;;;;9.32;5.35;;;;;;;;;;5045592;28;20191;-80
2021/04/01 01:07:55;;;;;;;9.25;5.65;;;;;;;;;;5045586;28;20222;-80
2021/04/01 01:10:27;;;;;;;6.50;4.72;;;;;;;;;;5046226;28;20210;-80
2021/04/01 01:12:54;;;;;;;8.65;6.15;;;;;;;;;;5047040;28;20190;-81
2021/04/01 01:15:22;;;;;;;9.73;5.85;;;;;;;;;;5046528;28;20209;-80
2021/04/01 01:17:51;;;;;;;9.75;5.43;;;;;;;;;;5046231;28;20704;-80
2021/04/01 01:20:22;;;;;;;5.57;4.53;;;;;;;;;;5047034;28;20183;-82
2021/04/01 01:22:50;;;;;;;12.13;5.88;;;;;;;;;;5045891;28;20209;-81
2021/04/01 01:25:22;;;;;;;7.07;4.88;;;;;;;;;;5046977;28;20208;-81
2021/04/01 01:27:49;;;;;;;6.82;5.00;;;;;;;;;;5045479;28;20221;-81
2021/04/01 01:30:19;;;;;;;9.27;5.53;;;;;;;;;;5045838;28;20193;-81
2021/04/01 01:32:56;;;;;;;7.75;5.85;;;;;;;;;;5037392;28;20203;-81
2021/04/01 01:35:26;;;;;;;10.55;5.50;;;;;;;;;;5045458;28;20214;-80
2021/04/01 01:37:54;;;;;;;8.10;6.22;;;;;;;;;;5044655;28;20806;-80
2021/04/01 01:40:24;;;;;;;6.00;5.15;;;;;;;;;;5045103;28;20205;-79
2021/04/01 01:42:53;;;;;;;8.05;5.65;;;;;;;;;;5045078;28;20194;-79
2021/04/01 01:45:21;;;;;;;7.35;5.63;;;;;;;;;;5025305;28;20654;-80
2021/04/01 01:47:48;;;;;;;7.47;5.40;;;;;;;;;;5036033;28;20250;-81
2021/04/01 01:50:17;;;;;;;6.05;5.07;;;;;;;;;;5034685;28;20183;-81
2021/04/01 01:52:45;;;;;;;8.00;5.43;;;;;;;;;;5035101;28;20202;-81
2021/04/01 01:55:13;;;;;;;8.13;5.93;;;;;;;;;;5034689;28;20187;-81
2021/04/01 01:57:41;;;;;;;9.02;6.38;;;;;;;;;;5034237;28;20222;-81
2021/04/01 02:00:11;;;;;;;8.98;6.45;;;;;;;;;;5034572;28;20203;-81
2021/04/01 02:02:38;;;;;;;6.28;5.32;;;;;;;;;;5034907;28;20183;-81
2021/04/01 02:05:07;;;;;;;7.38;5.65;;;;;;;;;;5033469;28;20209;-81
2021/04/01 02:07:35;;;;;;;7.75;6.20;;;;;;;;;;5033065;28;20222;-81
2021/04/01 02:10:07;;;;;;;8.77;5.28;;;;;;;;;;5034222;28;20226;-81
2021/04/01 02:12:34;;;;;;;8.55;5.88;;;;;;;;;;5034759;28;20191;-81
2021/04/01 02:15:02;;;;;;;11.88;6.32;;;;;;;;;;5033286;28;20206;-81
2021/04/01 02:17:29;;;;;;;6.53;5.18;;;;;;;;;;5033991;28;20226;-81
2021/04/01 02:19:57;;;;;;;7.75;6.07;;;;;;;;;;5034321;28;20194;-81
2021/04/01 02:22:24;;;;;;;8.13;7.05;;;;;;;;;;5034450;28;20660;-81
2021/04/01 02:24:51;;;;;;;9.57;6.60;;;;;;;;;;5034241;28;20202;-82
2021/04/01 02:27:18;;;;;;;7.50;6.13;;;;;;;;;;5032836;28;20595;-81
2021/04/01 02:29:47;;;;;;;7.82;5.70;;;;;;;;;;5034137;28;20210;-81
2021/04/01 02:32:15;;;;;;;7.75;5.57;;;;;;;;;;5034060;28;20197;-81
2021/04/01 02:34:42;;;;;;;8.18;5.28;;;;;;;;;;5034210;28;20178;-81
2021/04/01 02:37:09;;;;;;;8.25;5.93;;;;;;;;;;5033826;28;20229;-81
2021/04/01 02:39:36;;;;;;;8.05;5.30;;;;;;;;;;5033635;28;20651;-81
2021/04/01 02:42:04;;;;;;;6.80;5.63;;;;;;;;;;5034354;28;20225;-81
2021/04/01 02:44:31;;;;;;;7.13;5.03;;;;;;;;;;5034732;28;20186;-81
2021/04/01 02:46:58;;;;;;;7.22;6.50;;;;;;;;;;5034242;28;20229;-81
2021/04/01 02:49:27;;;;;;;5.68;4.95;;;;;;;;;;5034411;28;20691;-81
2021/04/01 02:51:54;;;;;;;8.32;5.60;;;;;;;;;;5034748;28;20545;-81
2021/04/01 02:54:21;;;;;;;8.80;5.38;;;;;;;;;;5034512;28;20199;-81
2021/04/01 02:56:48;;;;;;;8.23;5.40;;;;;;;;;;5033881;28;20215;-81
2021/04/01 02:59:15;;;;;;;7.43;5.43;;;;;;;;;;5033465;28;20206;-81
2021/04/01 03:01:42;;;;;;;7.72;5.50;;;;;;;;;;5033503;28;20206;-81
2021/04/01 03:04:11;;;;;;;8.27;5.72;;;;;;;;;;5033593;28;20209;-81
2021/04/01 03:06:38;;;;;;;8.05;5.22;;;;;;;;;;5033019;28;20236;-81
2021/04/01 03:09:06;;;;;;;6.57;5.93;;;;;;;;;;5032958;28;20245;-81
2021/04/01 03:11:33;;;;;;;5.95;4.90;;;;;;;;;;5033874;28;20247;-81
2021/04/01 03:14:00;;;;;;;6.20;4.57;;;;;;;;;;5032696;28;20283;-81
2021/04/01 03:16:27;;;;;;;6.57;4.97;;;;;;;;;;5032901;28;20222;-81
2021/04/01 03:18:54;;;;;;;10.02;5.20;;;;;;;;;;5033225;28;20210;-81
2021/04/01 03:21:20;;;;;;;9.63;5.68;;;;;;;;;;5033344;28;20182;-81
2021/04/01 03:23:48;;;;;;;8.52;5.50;;;;;;;;;;5034256;28;20254;-81
2021/04/01 03:26:15;;;;;;;5.68;4.63;;;;;;;;;;5033002;28;20218;-81
2021/04/01 03:28:42;;;;;;;6.97;5.68;;;;;;;;;;5033051;28;20182;-81
2021/04/01 03:31:09;;;;;;;8.23;5.20;;;;;;;;;;5033804;28;20195;-81
2021/04/01 03:33:36;;;;;;;6.45;5.15;;;;;;;;;;5032920;28;20641;-81
2021/04/01 03:36:04;;;;;;;7.75;5.57;;;;;;;;;;5033194;28;20190;-81
2021/04/01 03:38:31;;;;;;;9.65;6.00;;;;;;;;;;5033428;28;20187;-81
2021/04/01 03:40:59;;;;;;;9.38;5.53;;;;;;;;;;5033617;28;20656;-81
2021/04/01 03:43:26;;;;;;;6.35;5.75;;;;;;;;;;5035823;28;20606;-81
2021/04/01 03:45:54;;;;;;;9.23;6.47;;;;;;;;;;5036812;28;20586;-81
2021/04/01 03:48:22;;;;;;;8.60;5.07;;;;;;;;;;5037973;28;20249;-81
2021/04/01 03:50:49;;;;;;;7.45;5.28;;;;;;;;;;5037248;28;20233;-81
2021/04/01 03:53:16;;;;;;;9.15;5.55;;;;;;;;;;5037779;28;20182;-81
2021/04/01 03:55:43;;;;;;;7.00;6.20;;;;;;;;;;5037002;28;20289;-82
2021/04/01 03:58:30;;;;;;;9.13;5.75;;;;;;;;;;5036661;28;20202;-81
2021/04/01 04:01:11;;;;;;;5.63;5.03;;;;;;;;;;5037112;28;20292;-81
2021/04/01 04:03:47;;;;;;;7.88;5.60;;;;;;;;;;5037802;28;20640;-82
2021/04/01 04:06:29;;;;;;;7.22;4.80;;;;;;;;;;5037313;28;20711;-81
2021/04/01 04:09:06;;;;;;;6.68;5.25;;;;;;;;;;5037251;28;20256;-81
2021/04/01 04:11:36;;;;;;;6.28;5.68;;;;;;;;;;5040649;28;20244;-81
2021/04/01 04:14:08;;;;;;;6.47;5.65;;;;;;;;;;5041320;28;20202;-81
2021/04/01 04:16:35;;;;;;;6.85;6.25;;;;;;;;;;5036817;28;20230;-81
2021/04/01 04:19:03;;;;;;;7.82;6.10;;;;;;;;;;5036522;28;20731;-81
2021/04/01 04:21:30;;;;;;;6.15;5.55;;;;;;;;;;5037207;28;20265;-81
2021/04/01 04:23:57;;;;;;;11.40;6.10;;;;;;;;;;5037204;28;20175;-81
2021/04/01 04:26:24;;;;;;;8.60;5.57;;;;;;;;;;5036507;28;20643;-81
2021/04/01 04:28:51;;;;;;;7.82;5.60;;;;;;;;;;5036893;28;20206;-81
2021/04/01 04:31:19;;;;;;;6.32;4.88;;;;;;;;;;5037322;28;20198;-81
2021/04/01 04:33:46;;;;;;;5.47;4.88;;;;;;;;;;5036617;28;20214;-81
2021/04/01 04:36:13;;;;;;;5.95;5.35;;;;;;;;;;5036405;28;20347;-81
2021/04/01 04:38:40;;;;;;;5.75;5.10;;;;;;;;;;5037004;28;20190;-81
2021/04/01 04:41:07;;;;;;;8.45;5.75;;;;;;;;;;5036418;28;20187;-81
2021/04/01 04:43:35;;;;;;;9.02;5.22;;;;;;;;;;5040152;28;20290;-81
2021/04/01 04:46:02;;;;;;;8.35;5.63;;;;;;;;;;5040976;28;20198;-81
2021/04/01 04:48:30;;;;;;;9.15;5.20;;;;;;;;;;5043402;28;20288;-81
2021/04/01 04:50:57;;;;;;;7.88;5.22;;;;;;;;;;5041019;28;20302;-81
2021/04/01 04:53:25;;;;;;;7.00;5.28;;;;;;;;;;5036320;28;20202;-81
2021/04/01 04:56:01;;;;;;;8.00;5.18;;;;;;;;;;5036666;28;20206;-82
2021/04/01 04:58:33;;;;;;;6.72;5.97;;;;;;;;;;5036881;28;20639;-81
2021/04/01 05:01:03;;;;;;;7.05;5.05;;;;;;;;;;5036940;28;20214;-83
2021/04/01 05:06:33;;;;;;;6.25;5.53;;;;;;;;;;5037249;28;20301;-81
2021/04/01 05:09:00;;;;;;;6.97;5.20;;;;;;;;;;5037943;28;20210;-81
2021/04/01 05:11:27;;;;;;;9.63;5.53;;;;;;;;;;5038176;28;20202;-80
2021/04/01 05:13:54;;;;;;;7.20;5.72;;;;;;;;;;5039754;28;20233;-81
2021/04/01 05:16:21;;;;;;;7.43;6.18;;;;;;;;;;5040529;28;20230;-82
2021/04/01 05:18:49;;;;;;;8.18;5.75;;;;;;;;;;5040867;28;20293;-82
2021/04/01 05:21:18;;;;;;;7.93;5.50;;;;;;;;;;5040144;28;20214;-82
2021/04/01 05:23:47;;;;;;;6.68;5.00;;;;;;;;;;5036007;28;20206;-82
2021/04/01 05:29:02;;;;;;;8.13;5.28;;;;;;;;;;5034070;28;20296;-82
2021/04/01 05:31:32;;;;;;;8.68;6.10;;;;;;;;;;5035337;28;20252;-82
2021/04/01 05:34:01;;;;;;;6.63;5.85;;;;;;;;;;5035517;28;20210;-82
2021/04/01 05:36:30;;;;;;;6.05;5.43;;;;;;;;;;5035471;28;20226;-82
2021/04/01 05:39:00;;;;;;;7.75;4.70;;;;;;;;;;5035147;28;20206;-82
2021/04/01 05:41:29;;;;;;;7.03;5.72;;;;;;;;;;5035635;28;20237;-82
2021/04/01 05:44:04;;;;;;;10.13;5.60;;;;;;;;;;5035500;28;20206;-82
2021/04/01 05:46:36;;;;;;;6.22;5.57;;;;;;;;;;5035073;28;20233;-83
2021/04/01 05:49:13;;;;;;;12.25;6.25;;;;;;;;;;5035479;28;20206;-83
2021/04/01 05:57:48;;;;;;;7.82;5.70;;;;;;;;;;5034567;28;20673;-82
2021/04/01 06:03:18;;;;;;;9.68;6.30;;;;;;;;;;5034744;28;20245;-82
2021/04/01 06:05:47;;;;;;;8.38;5.47;;;;;;;;;;5034233;28;20198;-82
2021/04/01 06:08:17;;;;;;;8.48;5.95;;;;;;;;;;5035291;28;20206;-82
2021/04/01 06:10:45;;;;;;;7.97;5.82;;;;;;;;;;5035790;28;20202;-83
2021/04/01 06:13:14;;;;;;;8.32;6.05;;;;;;;;;;5035360;28;20226;-82
2021/04/01 06:15:47;;;;;;;6.13;5.53;;;;;;;;;;5034391;28;20241;-82
2021/04/01 06:18:16;;;;;;;7.43;6.40;;;;;;;;;;5035471;28;20301;-82
2021/04/01 06:20:46;;;;;;;6.93;5.80;;;;;;;;;;5034805;28;20225;-83
2021/04/01 06:23:17;;;;;;;7.80;5.45;;;;;;;;;;5035067;28;20284;-82
2021/04/01 06:25:49;;;;;;;7.05;5.97;;;;;;;;;;5034696;28;20208;-82
2021/04/01 06:28:19;;;;;;;13.48;7.50;;;;;;;;;;5035060;28;20213;-82
2021/04/01 06:30:50;;;;;;;7.78;5.95;;;;;;;;;;5035059;28;20202;-82
2021/04/01 06:33:21;;;;;;;7.13;6.43;;;;;;;;;;5034409;28;20663;-82
2021/04/01 06:35:54;;;;;;;8.07;6.40;;;;;;;;;;5033319;28;20202;-82
2021/04/01 06:38:24;;;;;;;11.55;8.88;;;;;;;;;;5035264;28;20191;-83
2021/04/01 06:40:55;;;;;;;7.68;5.43;;;;;;;;;;5034367;28;20222;-82
2021/04/01 06:43:48;;;;;;;7.30;6.43;;;;;;;;;;5034785;28;20233;-82
2021/04/01 06:46:17;;;;;;;6.90;5.75;;;;;;;;;;5034340;28;20303;-82
2021/04/01 06:49:21;;;;;;;8.20;5.95;;;;;;;;;;5034610;28;20206;-82
2021/04/01 06:51:55;;;;;;;7.90;6.30;;;;;;;;;;5034094;28;20552;-82
2021/04/01 06:54:29;;;;;;;7.20;6.45;;;;;;;;;;5034206;28;20301;-82
2021/04/01 06:57:24;;;;;;;8.35;6.55;;;;;;;;;;5033701;28;20761;-82
2021/04/01 07:00:04;;;;;;;6.50;5.80;;;;;;;;;;5034642;28;20202;-83
2021/04/01 07:02:38;;;;;;;8.98;6.60;;;;;;;;;;5034173;28;20580;-82
2021/04/01 07:05:25;;;;;;;7.65;6.57;;;;;;;;;;5034465;28;20210;-82
2021/04/01 07:08:01;;;;;;;8.48;6.38;;;;;;;;;;5034031;28;20219;-82
2021/04/01 07:10:44;;;;;;;13.98;7.07;;;;;;;;;;5034830;28;20209;-82
2021/04/01 07:13:16;;;;;;;12.32;8.57;;;;;;;;;;5034692;28;20206;-82
2021/04/01 07:15:45;;;;;;;8.30;6.55;;;;;;;;;;5034396;28;20202;-82
2021/04/01 07:18:35;;;;;;;12.27;7.60;;;;;;;;;;5034191;28;20239;-82
2021/04/01 07:22:23;;;;;;;11.55;7.03;;;;;;;;;;5033877;28;20218;-84
2021/04/01 07:35:56;;;;;;;10.52;8.05;;;;;;;;;;5032966;28;20205;-83
2021/04/01 07:46:52;;;;;;;18.70;12.52;;;;;;;;;;5034049;28;20237;-82
2021/04/01 07:49:24;;;;;;;23.23;14.25;;;;;;;;;;5033695;28;20718;-82
2021/04/01 07:52:04;;;;;;;24.67;13.57;;;;;;;;;;5033873;28;20681;-83
2021/04/01 07:54:40;;;;;;;19.20;13.32;;;;;;;;;;5034211;28;20256;-82
2021/04/01 07:57:41;;;;;;;18.17;10.25;;;;;;;;;;5034666;28;20253;-82
2021/04/01 08:00:15;;;;;;;15.57;9.43;;;;;;;;;;5033159;28;20214;-82
2021/04/01 08:02:53;;;;;;;12.05;9.02;;;;;;;;;;5033451;28;20209;-82
2021/04/01 08:05:28;;;;;;;10.77;7.50;;;;;;;;;;5032755;28;20712;-82
2021/04/01 08:07:58;;;;;;;12.63;7.43;;;;;;;;;;5033374;28;20229;-83
2021/04/01 08:10:29;;;;;;;9.07;7.78;;;;;;;;;;5032434;28;20249;-82
2021/04/01 08:13:05;;;;;;;8.10;6.82;;;;;;;;;;5033082;28;20198;-83
2021/04/01 08:15:39;;;;;;;10.65;8.73;;;;;;;;;;5032899;28;20234;-82
2021/04/01 08:18:13;;;;;;;12.73;9.43;;;;;;;;;;5033360;28;20605;-83
2021/04/01 08:20:44;;;;;;;14.65;9.55;;;;;;;;;;5034002;28;20244;-82
2021/04/01 08:23:18;;;;;;;15.25;9.38;;;;;;;;;;5033291;28;20668;-82
2021/04/01 08:25:51;;;;;;;22.75;16.23;;;;;;;;;;5033734;28;20225;-82
2021/04/01 08:28:32;;;;;;;27.13;16.85;;;;;;;;;;5033301;28;20202;-82
2021/04/01 08:36:41;;;;;;;23.92;16.15;;;;;;;;;;5022693;28;20755;-82
2021/04/01 08:39:08;;;;;;;22.75;15.65;;;;;;;;;;5037092;28;20217;-82
2021/04/01 08:41:57;;;;;;;27.63;17.38;;;;;;;;;;5036560;28;20703;-82
2021/04/01 08:45:14;;;;;;;27.20;18.80;;;;;;;;;;5036185;28;20199;-82
2021/04/01 08:47:52;;;;;;;30.13;19.73;;;;;;;;;;4992413;28;20230;-82
2021/04/01 08:50:27;;;;;;;32.72;20.30;;;;;;;;;;5036527;28;20201;-82
2021/04/01 08:53:17;;;;;;;16.65;12.30;;;;;;;;;;5036493;28;20755;-82
2021/04/01 08:55:51;;;;;;;19.73;11.73;;;;;;;;;;5036851;28;20248;-82
2021/04/01 08:58:26;;;;;;;15.85;12.23;;;;;;;;;;5036920;28;20202;-83
2021/04/01 09:01:07;;;;;;;21.80;14.38;;;;;;;;;;5037203;28;20780;-83
2021/04/01 09:03:37;;;;;;;26.05;17.00;;;;;;;;;;5036923;28;20275;-83
2021/04/01 09:06:06;;;;;;;26.30;15.98;;;;;;;;;;5035865;28;20206;-83
2021/04/01 09:08:34;;;;;;;24.30;15.85;;;;;;;;;;5036947;28;20198;-83
2021/04/01 09:11:02;;;;;;;22.60;15.10;;;;;;;;;;5036811;28;20195;-83
2021/04/01 09:13:31;;;;;;;25.05;16.88;;;;;;;;;;5036914;28;20202;-83
2021/04/01 09:16:04;;;;;;;27.52;16.52;;;;;;;;;;5036373;28;20310;-82
2021/04/01 09:18:32;;;;;;;27.00;14.85;;;;;;;;;;5037105;28;20202;-83
2021/04/01 09:21:01;;;;;;;23.65;17.25;;;;;;;;;;5036910;28;20222;-83
2021/04/01 09:23:36;;;;;;;18.20;12.93;;;;;;;;;;5036823;28;20207;-83
2021/04/01 09:26:05;;;;;;;17.92;12.10;;;;;;;;;;5036721;28;20662;-83
2021/04/01 09:28:34;;;;;;;22.10;12.93;;;;;;;;;;5036692;28;20198;-84
2021/04/01 09:31:06;;;;;;;23.90;14.15;;;;;;;;;;5036728;28;20202;-84
2021/04/01 09:33:35;;;;;;;20.85;14.25;;;;;;;;;;5036609;28;20209;-83
2021/04/01 09:36:12;;;;;;;23.40;15.18;;;;;;;;;;5036150;28;20191;-83
2021/04/01 09:38:41;;;;;;;23.48;16.42;;;;;;;;;;5036561;28;20186;-83
2021/04/01 09:41:09;;;;;;;30.15;16.88;;;;;;;;;;5036377;28;20230;-84
2021/04/01 09:43:36;;;;;;;30.48;20.77;;;;;;;;;;5036499;28;20194;-84
2021/04/01 09:46:12;;;;;;;33.45;19.67;;;;;;;;;;5035607;28;20550;-83
2021/04/01 09:48:42;;;;;;;32.40;20.02;;;;;;;;;;5035935;28;20206;-84
2021/04/01 09:51:21;;;;;;;31.95;20.48;;;;;;;;;;5036453;28;20210;-84
2021/04/01 09:53:53;;;;;;;28.17;18.50;;;;;;;;;;5037250;28;20209;-85
2021/04/01 09:56:25;;;;;;;24.52;17.52;;;;;;;;;;5036052;28;20317;-84
2021/04/01 09:58:54;;;;;;;37.15;22.38;;;;;;;;;;5035942;28;20289;-85
2021/04/01 10:01:27;;;;;;;28.83;18.20;;;;;;;;;;5035794;28;20218;-84
2021/04/01 10:04:07;;;;;;;31.75;19.90;;;;;;;;;;5036810;28;20236;-85
2021/04/01 10:06:40;;;;;;;33.67;20.27;;;;;;;;;;5039148;28;20763;-84
2021/04/01 10:09:13;;;;;;;33.85;21.00;;;;;;;;;;5038266;28;20294;-85
2021/04/01 10:11:45;;;;;;;32.95;21.10;;;;;;;;;;5035873;28;20205;-85
2021/04/01 10:14:13;;;;;;;32.85;21.15;;;;;;;;;;5036218;28;20301;-84
2021/04/01 10:16:53;;;;;;;30.10;19.48;;;;;;;;;;5035271;28;20316;-84
2021/04/01 10:19:22;;;;;;;33.10;22.40;;;;;;;;;;5036519;28;20205;-85
2021/04/01 10:21:49;;;;;;;26.60;18.42;;;;;;;;;;5036059;28;20225;-85
2021/04/01 10:24:25;;;;;;;26.33;18.08;;;;;;;;;;5036512;28;20194;-85
2021/04/01 10:27:00;;;;;;;25.20;16.85;;;;;;;;;;5035315;28;20238;-84
2021/04/01 10:29:40;;;;;;;28.70;17.52;;;;;;;;;;5035537;28;20714;-85
2021/04/01 10:32:10;;;;;;;24.90;18.05;;;;;;;;;;5035767;28;20198;-84
2021/04/01 10:34:44;;;;;;;30.17;17.08;;;;;;;;;;5035494;28;20548;-85
2021/04/01 10:37:13;;;;;;;24.13;15.85;;;;;;;;;;5036037;28;20221;-84
2021/04/01 10:39:41;;;;;;;24.92;15.68;;;;;;;;;;5018949;28;20226;-84
2021/04/01 10:42:11;;;;;;;25.85;18.10;;;;;;;;;;5035920;28;20317;-85
2021/04/01 10:44:39;;;;;;;26.55;16.80;;;;;;;;;;5036172;28;20206;-85
2021/04/01 10:47:14;;;;;;;32.22;21.50;;;;;;;;;;5035263;28;20234;-85
2021/04/01 10:49:41;;;;;;;31.42;21.33;;;;;;;;;;5036639;28;20193;-85
2021/04/01 10:52:11;;;;;;;27.40;20.63;;;;;;;;;;5034852;28;20210;-85
2021/04/01 10:54:41;;;;;;;26.60;17.92;;;;;;;;;;5035929;28;20206;-85
2021/04/01 10:57:10;;;;;;;23.20;16.10;;;;;;;;;;5035130;28;20234;-85
2021/04/01 10:59:43;;;;;;;28.45;17.23;;;;;;;;;;5035483;28;20210;-84
2021/04/01 11:02:16;;;;;;;27.20;16.77;;;;;;;;;;5036328;28;20313;-85
2021/04/01 11:04:47;;;;;;;22.70;16.17;;;;;;;;;;5036689;28;20210;-84
2021/04/01 11:07:15;;;;;;;21.80;14.65;;;;;;;;;;5036780;28;20723;-84
2021/04/01 11:09:47;;;;;;;19.25;13.25;;;;;;;;;;5037449;28;20526;-84
2021/04/01 11:12:17;;;;;;;24.30;14.65;;;;;;;;;;5046139;28;20260;-84
2021/04/01 11:14:48;;;;;;;23.20;14.93;;;;;;;;;;5028658;28;20198;-83
2021/04/01 11:17:20;;;;;;;19.67;13.10;;;;;;;;;;5036141;28;20316;-84
2021/04/01 11:19:49;;;;;;;23.85;14.82;;;;;;;;;;5036168;28;20194;-84
2021/04/01 11:22:16;;;;;;;22.70;14.88;;;;;;;;;;5035713;28;20222;-84
2021/04/01 11:24:43;;;;;;;23.73;15.73;;;;;;;;;;5035475;28;20271;-85
2021/04/01 11:27:13;;;;;;;27.23;16.05;;;;;;;;;;5034596;28;20708;-84
2021/04/01 11:29:41;;;;;;;23.48;14.38;;;;;;;;;;5035095;28;20218;-85
2021/04/01 11:32:19;;;;;;;25.13;14.80;;;;;;;;;;5035264;28;20297;-84
2021/04/01 11:34:49;;;;;;;21.40;13.40;;;;;;;;;;5036001;28;20224;-84
2021/04/01 11:37:20;;;;;;;27.05;15.85;;;;;;;;;;5034860;28;20222;-84
2021/04/01 11:39:47;;;;;;;20.08;12.65;;;;;;;;;;5035407;28;20679;-84
2021/04/01 11:42:16;;;;;;;23.17;14.88;;;;;;;;;;5035090;28;20226;-84
2021/04/01 11:44:44;;;;;;;18.88;13.60;;;;;;;;;;5035375;28;20210;-84
2021/04/01 11:47:32;;;;;;;23.95;14.50;;;;;;;;;;5034266;28;20230;-84
2021/04/01 11:50:00;;;;;;;17.58;12.35;;;;;;;;;;5034974;28;20458;-84
2021/04/01 11:52:27;;;;;;;21.60;13.20;;;;;;;;;;5034305;28;20202;-84
2021/04/01 11:54:54;;;;;;;22.35;12.57;;;;;;;;;;5033707;28;20206;-84
2021/04/01 11:57:26;;;;;;;22.60;13.65;;;;;;;;;;5033030;28;20662;-85
2021/04/01 11:59:58;;;;;;;20.48;11.93;;;;;;;;;;5033820;28;20221;-84
2021/04/01 12:02:27;;;;;;;21.67;12.63;;;;;;;;;;5033679;28;20221;-84
2021/04/01 12:04:57;;;;;;;18.55;12.80;;;;;;;;;;5036956;28;20206;-84
2021/04/01 12:07:24;;;;;;;20.70;13.75;;;;;;;;;;5039452;28;20238;-84
2021/04/01 12:09:52;;;;;;;22.85;14.23;;;;;;;;;;5037405;28;20213;-84
2021/04/01 12:12:33;;;;;;;18.10;12.88;;;;;;;;;;5037672;28;20198;-84
2021/04/01 12:15:00;;;;;;;23.15;14.77;;;;;;;;;;5037684;28;20202;-84
2021/04/01 12:17:39;;;;;;;21.45;14.05;;;;;;;;;;5038094;28;20233;-84
2021/04/01 12:20:12;;;;;;;22.27;12.88;;;;;;;;;;5038037;28;20281;-84
2021/04/01 12:22:42;;;;;;;17.67;11.23;;;;;;;;;;5037788;28;20221;-84
2021/04/01 12:25:14;;;;;;;18.90;10.68;;;;;;;;;;5037461;28;20664;-84
2021/04/01 12:27:54;;;;;;;20.75;13.45;;;;;;;;;;5037689;28;20265;-84
2021/04/01 12:30:28;;;;;;;16.90;10.50;;;;;;;;;;5038029;28;20206;-84
2021/04/01 12:33:06;;;;;;;20.95;11.50;;;;;;;;;;5037483;28;20308;-84
2021/04/01 12:35:34;;;;;;;22.92;13.80;;;;;;;;;;5036643;28;20203;-84
2021/04/01 12:38:04;;;;;;;25.58;16.52;;;;;;;;;;5037445;28;20210;-84
2021/04/01 12:40:38;;;;;;;23.10;16.10;;;;;;;;;;5037200;28;20210;-84
2021/04/01 12:43:07;;;;;;;26.35;18.63;;;;;;;;;;5037452;28;20277;-84
2021/04/01 12:45:34;;;;;;;21.40;15.60;;;;;;;;;;5037068;28;20529;-84
2021/04/01 12:48:11;;;;;;;25.05;15.15;;;;;;;;;;5037403;28;20262;-84
2021/04/01 12:50:41;;;;;;;22.65;15.60;;;;;;;;;;5037479;28;20216;-84
2021/04/01 12:53:09;;;;;;;24.95;16.90;;;;;;;;;;5037634;28;20255;-84
2021/04/01 12:55:48;;;;;;;31.48;19.88;;;;;;;;;;5037222;28;20210;-84
2021/04/01 12:58:35;;;;;;;22.35;15.48;;;;;;;;;;5037902;28;20285;-84
2021/04/01 13:01:15;;;;;;;27.77;19.23;;;;;;;;;;5037836;28;20213;-84
2021/04/01 13:03:42;;;;;;;24.73;17.70;;;;;;;;;;5037539;28;20281;-84
2021/04/01 13:06:14;;;;;;;27.67;19.98;;;;;;;;;;5036962;28;20218;-84
2021/04/01 13:08:53;;;;;;;25.20;18.08;;;;;;;;;;5037051;28;20240;-84
2021/04/01 13:11:21;;;;;;;31.45;20.33;;;;;;;;;;5036660;28;20255;-84
2021/04/01 13:13:48;;;;;;;27.35;18.55;;;;;;;;;;5036886;28;20735;-84
2021/04/01 13:16:15;;;;;;;30.50;19.92;;;;;;;;;;5036804;28;20232;-84
2021/04/01 13:18:42;;;;;;;31.13;19.75;;;;;;;;;;5037302;28;20213;-84
2021/04/01 13:21:31;;;;;;;23.48;18.00;;;;;;;;;;5037244;28;20305;-84
2021/04/01 13:24:05;;;;;;;26.50;19.58;;;;;;;;;;5038031;28;20612;-84
2021/04/01 13:26:34;;;;;;;25.50;18.30;;;;;;;;;;5037160;28;20743;-84
2021/04/01 13:29:03;;;;;;;24.88;17.70;;;;;;;;;;5038703;28;20236;-84
2021/04/01 13:31:39;;;;;;;25.90;18.55;;;;;;;;;;5040366;28;20195;-84
2021/04/01 13:34:12;;;;;;;23.77;15.73;;;;;;;;;;5037680;28;20202;-84
2021/04/01 13:36:46;;;;;;;31.90;21.23;;;;;;;;;;5037936;28;20226;-84
2021/04/01 13:39:18;;;;;;;27.17;21.27;;;;;;;;;;5038810;28;20201;-84
2021/04/01 13:42:02;;;;;;;30.75;22.60;;;;;;;;;;5038358;28;20213;-84
2021/04/01 13:44:32;;;;;;;28.75;21.13;;;;;;;;;;5037831;28;20307;-84
2021/04/01 13:47:00;;;;;;;39.08;30.25;;;;;;;;;;5061184;23;20230;-85
2021/04/01 13:49:29;;;;;;;48.65;33.22;;;;;;;;;;5039235;28;20195;-85
2021/04/01 13:52:00;;;;;;;51.17;34.38;;;;;;;;;;5039192;28;20194;-85
2021/04/01 13:54:44;;;;;;;45.33;34.10;;;;;;;;;;5040318;28;20662;-86
2021/04/01 13:57:22;;;;;;;47.97;34.13;;;;;;;;;;5040097;28;20237;-85
2021/04/01 14:00:02;;;;;;;48.90;33.38;;;;;;;;;;5039593;28;20594;-84
2021/04/01 14:10:47;;;;;;;50.30;36.08;;;;;;;;;;5034511;28;20698;-85
2021/04/01 14:13:17;;;;;;;49.90;38.95;;;;;;;;;;5033725;28;20225;-85
2021/04/01 14:15:44;;;;;;;48.28;35.53;;;;;;;;;;5033352;28;20198;-85
2021/04/01 14:18:12;;;;;;;47.47;34.60;;;;;;;;;;5033601;28;20217;-85
2021/04/01 14:20:39;;;;;;;48.33;35.08;;;;;;;;;;5033774;28;20324;-85
2021/04/01 14:23:07;;;;;;;49.20;34.50;;;;;;;;;;5034628;28;20207;-83
2021/04/01 14:25:38;;;;;;;47.58;34.85;;;;;;;;;;5032567;28;20206;-85
2021/04/01 14:28:05;;;;;;;53.70;39.00;;;;;;;;;;5032980;28;20249;-86
2021/04/01 14:30:34;;;;;;;52.25;37.78;;;;;;;;;;5034514;28;20202;-86
2021/04/01 14:33:02;;;;;;;48.33;35.40;;;;;;;;;;5034471;28;20205;-85
2021/04/01 14:35:31;;;;;;;52.95;38.80;;;;;;;;;;5034238;28;20182;-85
2021/04/01 14:38:00;;;;;;;49.35;34.30;;;;;;;;;;5033960;28;20218;-86
2021/04/01 14:40:32;;;;;;;50.22;36.08;;;;;;;;;;5033407;28;20601;-85
2021/04/01 14:43:01;;;;;;;51.15;35.85;;;;;;;;;;5033209;28;20222;-84
2021/04/01 14:45:30;;;;;;;45.10;31.35;;;;;;;;;;5033371;28;20459;-85
2021/04/01 14:47:57;;;;;;;38.47;25.95;;;;;;;;;;5033293;28;20652;-85
2021/04/01 14:50:24;;;;;;;40.10;25.42;;;;;;;;;;5033165;28;20210;-85
2021/04/01 14:52:54;;;;;;;39.53;25.58;;;;;;;;;;5033748;28;20210;-85
2021/04/01 14:55:21;;;;;;;34.20;23.35;;;;;;;;;;5032775;28;20206;-85
2021/04/01 14:57:50;;;;;;;30.00;20.92;;;;;;;;;;5033158;28;20218;-85
2021/04/01 15:00:19;;;;;;;28.48;20.17;;;;;;;;;;5033190;28;20186;-85
2021/04/01 15:02:51;;;;;;;21.00;15.52;;;;;;;;;;5033043;28;20202;-86
2021/04/01 15:05:19;;;;;;;20.35;15.45;;;;;;;;;;5034158;28;20285;-85
2021/04/01 15:07:48;;;;;;;22.65;17.48;;;;;;;;;;5033523;28;20225;-85
2021/04/01 15:10:15;;;;;;;22.02;16.10;;;;;;;;;;5033262;28;20179;-85
2021/04/01 15:12:44;;;;;;;23.90;16.70;;;;;;;;;;5033742;28;20190;-85
2021/04/01 15:15:13;;;;;;;20.48;13.88;;;;;;;;;;5033464;28;20198;-85
2021/04/01 15:17:40;;;;;;;19.50;12.60;;;;;;;;;;5032968;28;20222;-83
2021/04/01 15:20:10;;;;;;;19.38;13.20;;;;;;;;;;5032957;28;20175;-85
2021/04/01 15:22:37;;;;;;;12.70;11.15;;;;;;;;;;5033235;28;20262;-85
2021/04/01 15:25:05;;;;;;;13.50;9.85;;;;;;;;;;5033662;28;20211;-85
2021/04/01 15:27:32;;;;;;;11.88;8.40;;;;;;;;;;5033917;28;20226;-85
2021/04/01 15:29:59;;;;;;;13.35;9.05;;;;;;;;;;5033060;28;20210;-85
2021/04/01 15:32:27;;;;;;;11.93;8.18;;;;;;;;;;5033271;28;20187;-85
2021/04/01 15:34:55;;;;;;;10.73;6.22;;;;;;;;;;5032485;28;20493;-85
2021/04/01 15:37:22;;;;;;;7.75;6.55;;;;;;;;;;5032823;28;20222;-85
2021/04/01 15:39:48;;;;;;;8.00;5.90;;;;;;;;;;5039127;28;20186;-85
2021/04/01 15:42:16;;;;;;;6.65;5.00;;;;;;;;;;5039012;28;20651;-85